Time;durP1;ratioP1;P1;durP2;ratioP2;P2;SDS_P1;SDS_P2;PMS_P1;PMS_P2;Temp;Humidity;BMP_temperature;BMP_pressure;BME280_temperature;BME280_humidity;BME280_pressure;Samples;Min_cycle;Max_cycle;Signal;HPM_P1;HPM_P2
2021/10/19 00:01:43;;;;;;;16.20;14.70;;;10.90;99.90;;;;;;10146817;29;20242;-85
2021/10/19 00:06:45;;;;;;;16.73;15.13;;;10.80;99.90;;;;;;10162711;29;20619;-83
2021/10/19 00:11:47;;;;;;;15.63;14.13;;;10.70;99.90;;;;;;10147871;29;20214;-84
2021/10/19 00:16:51;;;;;;;15.70;14.20;;;10.70;99.90;;;;;;10147932;29;20320;-84
2021/10/19 00:21:53;;;;;;;15.93;14.53;;;10.60;99.90;;;;;;10146791;29;20216;-84
2021/10/19 00:26:55;;;;;;;16.30;14.67;;;10.60;99.90;;;;;;10145311;29;20229;-84
2021/10/19 00:31:58;;;;;;;15.67;13.73;;;10.60;99.90;;;;;;10145796;29;20216;-84
2021/10/19 00:37:01;;;;;;;14.17;12.87;;;10.60;99.90;;;;;;10144679;29;20226;-84
2021/10/19 00:42:03;;;;;;;14.23;12.90;;;10.70;99.90;;;;;;10160038;29;20244;-83
2021/10/19 00:47:06;;;;;;;14.13;12.90;;;10.70;99.90;;;;;;10159860;29;20658;-84
2021/10/19 00:52:09;;;;;;;14.30;12.90;;;10.70;99.90;;;;;;10147954;29;20212;-83
2021/10/19 00:57:12;;;;;;;14.40;13.00;;;10.70;99.90;;;;;;10142358;29;20245;-83
2021/10/19 01:02:16;;;;;;;13.57;12.47;;;10.70;99.90;;;;;;10137625;29;20325;-84
2021/10/19 01:07:20;;;;;;;15.20;13.80;;;10.70;99.90;;;;;;10141529;29;20675;-84
2021/10/19 01:12:23;;;;;;;14.50;13.17;;;10.50;99.90;;;;;;10158635;29;20210;-84
2021/10/19 01:17:26;;;;;;;15.57;12.93;;;10.50;99.90;;;;;;10113272;29;20233;-83
2021/10/19 01:22:29;;;;;;;13.90;12.57;;;10.50;99.90;;;;;;10103045;29;20210;-84
2021/10/19 01:27:31;;;;;;;13.83;12.50;;;10.50;99.90;;;;;;10105005;29;20258;-83
2021/10/19 01:32:34;;;;;;;15.13;13.80;;;10.50;99.90;;;;;;10102821;29;20225;-84
2021/10/19 01:37:37;;;;;;;15.10;13.60;;;10.50;99.90;;;;;;10130051;29;20233;-84
2021/10/19 01:42:40;;;;;;;14.33;12.93;;;10.50;99.90;;;;;;10141773;29;20738;-84
2021/10/19 01:47:42;;;;;;;14.33;13.10;;;10.60;99.90;;;;;;10141161;29;20234;-83
2021/10/19 01:52:48;;;;;;;13.23;12.10;;;10.60;99.90;;;;;;10141389;29;20198;-83
2021/10/19 01:57:50;;;;;;;13.70;12.50;;;10.70;99.90;;;;;;10140643;29;20640;-84
2021/10/19 02:02:52;;;;;;;12.67;11.40;;;10.80;99.90;;;;;;10140554;29;20209;-85
2021/10/19 02:07:56;;;;;;;13.47;12.27;;;10.90;99.90;;;;;;10140913;29;20234;-85
2021/10/19 02:12:58;;;;;;;13.20;12.10;;;10.90;99.90;;;;;;10145552;29;20238;-84
2021/10/19 02:18:00;;;;;;;15.57;14.10;;;11.00;99.90;;;;;;10158316;29;20802;-84
2021/10/19 02:23:04;;;;;;;16.27;14.77;;;11.10;99.90;;;;;;10140315;29;20229;-84
2021/10/19 02:28:06;;;;;;;18.00;16.10;;;11.20;99.90;;;;;;10140672;29;20229;-84
2021/10/19 02:33:08;;;;;;;15.73;14.27;;;11.30;99.90;;;;;;10139814;29;20209;-84
2021/10/19 02:38:12;;;;;;;13.27;12.10;;;11.30;99.90;;;;;;10140414;29;20229;-84
2021/10/19 02:43:15;;;;;;;13.97;12.77;;;11.30;99.90;;;;;;10155378;29;20551;-84
2021/10/19 02:48:17;;;;;;;13.10;11.90;;;11.40;99.90;;;;;;10154809;29;20225;-84
2021/10/19 02:53:20;;;;;;;14.73;13.53;;;11.40;99.90;;;;;;10139597;29;20210;-84
2021/10/19 02:58:22;;;;;;;16.30;14.90;;;11.40;99.90;;;;;;10139630;29;20226;-83
2021/10/19 03:03:24;;;;;;;15.90;14.50;;;11.50;99.90;;;;;;10139887;29;20210;-84
2021/10/19 03:08:28;;;;;;;16.43;14.90;;;11.50;99.90;;;;;;10153955;29;20222;-84
2021/10/19 03:13:30;;;;;;;16.13;14.73;;;11.50;99.90;;;;;;10161094;29;20202;-84
2021/10/19 03:18:32;;;;;;;15.97;14.47;;;11.60;99.90;;;;;;10140357;29;20222;-84
2021/10/19 03:23:36;;;;;;;15.50;14.10;;;11.50;99.90;;;;;;10146509;29;20210;-84
2021/10/19 03:28:38;;;;;;;16.83;15.20;;;11.60;99.90;;;;;;10162181;29;20230;-84
2021/10/19 03:33:40;;;;;;;16.10;14.70;;;11.60;99.90;;;;;;10145579;29;20216;-84
2021/10/19 03:38:44;;;;;;;16.37;14.73;;;11.70;99.90;;;;;;10146007;29;20258;-84
2021/10/19 03:43:46;;;;;;;16.33;14.73;;;11.70;99.90;;;;;;10146038;29;20210;-84
2021/10/19 03:48:48;;;;;;;15.13;13.83;;;11.70;99.90;;;;;;10160809;29;20230;-84
2021/10/19 03:53:52;;;;;;;14.87;13.47;;;11.70;99.90;;;;;;10145425;29;20734;-84
2021/10/19 03:58:55;;;;;;;14.17;12.97;;;11.70;99.90;;;;;;10141434;29;20214;-85
2021/10/19 04:03:59;;;;;;;15.13;13.57;;;11.70;99.90;;;;;;10139718;29;20210;-85
2021/10/19 04:09:02;;;;;;;14.67;13.27;;;11.80;99.90;;;;;;10144200;29;20222;-85
2021/10/19 04:14:04;;;;;;;14.53;13.20;;;11.80;99.90;;;;;;10144460;29;20201;-83
2021/10/19 04:19:06;;;;;;;13.63;12.50;;;11.80;99.90;;;;;;10144619;29;20221;-83
2021/10/19 04:24:10;;;;;;;14.67;13.37;;;11.90;99.90;;;;;;10143727;29;20313;-84
2021/10/19 04:29:13;;;;;;;15.67;14.17;;;11.90;99.90;;;;;;10143772;29;20282;-85
2021/10/19 04:34:15;;;;;;;13.47;12.27;;;11.90;99.90;;;;;;10157672;29;20246;-84
2021/10/19 04:39:19;;;;;;;14.40;13.00;;;12.00;99.90;;;;;;10143598;29;20194;-84
2021/10/19 04:44:21;;;;;;;13.67;12.37;;;11.90;99.90;;;;;;10163336;23;20237;-84
2021/10/19 04:49:24;;;;;;;14.27;12.87;;;11.90;99.90;;;;;;10221270;29;20319;-82
2021/10/19 04:54:27;;;;;;;12.60;11.50;;;12.00;99.90;;;;;;10248389;28;20201;-83
2021/10/19 04:59:29;;;;;;;12.93;11.70;;;12.00;99.90;;;;;;10247716;28;20205;-82
2021/10/19 05:04:32;;;;;;;15.03;13.60;;;12.00;99.90;;;;;;10268775;28;20208;-82
2021/10/19 05:09:35;;;;;;;15.13;13.73;;;12.00;99.90;;;;;;10270557;28;20573;-82
2021/10/19 05:14:37;;;;;;;14.00;12.53;;;12.00;99.90;;;;;;10237340;28;20573;-82
2021/10/19 05:19:39;;;;;;;14.90;13.50;;;12.00;99.90;;;;;;10253724;28;20195;-82
2021/10/19 05:24:43;;;;;;;15.10;13.53;;;12.10;99.90;;;;;;10253423;28;20323;-82
2021/10/19 05:30:20;;;;;;;14.77;13.37;;;12.10;99.90;;;;;;10238773;28;20743;-82
2021/10/19 05:35:23;;;;;;;14.77;13.47;;;12.10;99.90;;;;;;10228321;29;20236;-82
2021/10/19 05:40:27;;;;;;;15.40;14.10;;;12.10;99.90;;;;;;10224940;28;20222;-81
2021/10/19 05:45:29;;;;;;;15.87;14.10;;;12.10;99.90;;;;;;10219100;28;20291;-82
2021/10/19 05:50:33;;;;;;;15.27;13.87;;;12.10;99.90;;;;;;10220775;29;20239;-82
2021/10/19 05:55:37;;;;;;;15.30;12.97;;;12.20;99.90;;;;;;10238021;28;20220;-81
2021/10/19 06:00:39;;;;;;;15.47;14.10;;;12.20;99.90;;;;;;10237622;29;20201;-82
2021/10/19 06:05:41;;;;;;;14.57;13.17;;;12.20;99.90;;;;;;10236028;28;20240;-82
2021/10/19 06:10:45;;;;;;;14.17;12.87;;;12.30;99.90;;;;;;10234376;29;20220;-82
2021/10/19 06:15:47;;;;;;;14.20;12.97;;;12.30;99.90;;;;;;10217611;28;20688;-82
2021/10/19 06:20:49;;;;;;;18.80;14.23;;;12.30;99.90;;;;;;10260129;28;20204;-82
2021/10/19 06:25:53;;;;;;;15.53;14.10;;;12.40;99.90;;;;;;10225155;28;20248;-84
2021/10/19 06:30:55;;;;;;;14.00;12.67;;;12.40;99.90;;;;;;10234344;28;20303;-82
2021/10/19 06:35:57;;;;;;;13.37;12.17;;;12.50;99.90;;;;;;10217900;29;20260;-82
2021/10/19 06:41:00;;;;;;;11.60;10.63;;;12.50;99.90;;;;;;10217660;29;20204;-82
2021/10/19 06:46:03;;;;;;;13.57;10.30;;;12.60;99.90;;;;;;10218103;28;20235;-82
2021/10/19 06:51:06;;;;;;;13.70;12.30;;;12.60;99.90;;;;;;10233569;28;20232;-82
2021/10/19 06:56:09;;;;;;;15.23;12.97;;;12.70;99.90;;;;;;10222991;28;20224;-82
2021/10/19 07:01:11;;;;;;;15.23;13.00;;;12.80;99.90;;;;;;10241543;29;20683;-82
2021/10/19 07:06:13;;;;;;;15.83;13.33;;;12.80;99.90;;;;;;10227471;28;20704;-82
2021/10/19 07:11:17;;;;;;;15.93;14.30;;;12.90;99.90;;;;;;10249019;28;20220;-82
2021/10/19 07:16:19;;;;;;;15.50;13.90;;;12.90;99.90;;;;;;10233340;28;20252;-82
2021/10/19 07:21:23;;;;;;;17.20;14.37;;;13.00;99.90;;;;;;10229856;28;20196;-81
2021/10/19 07:26:26;;;;;;;16.63;14.67;;;13.00;99.90;;;;;;10242712;28;20220;-82
2021/10/19 07:31:28;;;;;;;17.23;14.97;;;13.10;99.90;;;;;;10241818;29;20232;-83
2021/10/19 07:36:31;;;;;;;19.23;14.90;;;13.10;99.90;;;;;;10259180;28;20251;-82
2021/10/19 07:41:36;;;;;;;20.03;14.37;;;13.10;99.90;;;;;;10260605;29;20212;-84
2021/10/19 07:46:38;;;;;;;16.13;14.10;;;13.20;99.90;;;;;;10224519;28;20239;-81
2021/10/19 07:51:40;;;;;;;15.17;13.70;;;13.30;99.90;;;;;;10226332;29;20227;-82
2021/10/19 07:56:44;;;;;;;17.77;14.13;;;13.40;99.90;;;;;;10259117;28;20240;-81
2021/10/19 08:01:47;;;;;;;15.37;13.87;;;13.40;99.90;;;;;;10261985;29;20584;-81
2021/10/19 08:06:49;;;;;;;14.53;13.33;;;13.50;99.90;;;;;;10227126;28;20236;-82
2021/10/19 08:11:53;;;;;;;15.70;14.20;;;13.60;99.90;;;;;;10242265;29;20748;-81
2021/10/19 08:16:55;;;;;;;13.23;11.93;;;13.70;99.90;;;;;;10225718;28;20224;-82
2021/10/19 08:21:57;;;;;;;15.63;14.20;;;13.80;99.90;;;;;;10243822;29;20192;-82
2021/10/19 08:27:00;;;;;;;14.60;13.30;;;13.90;99.90;;;;;;10243837;28;20275;-85
2021/10/19 08:32:03;;;;;;;17.17;13.63;;;13.90;99.90;;;;;;10222283;29;20232;-82
2021/10/19 08:37:05;;;;;;;15.23;13.73;;;14.00;99.90;;;;;;10244813;28;20311;-83
2021/10/19 08:42:08;;;;;;;17.13;14.53;;;14.10;99.90;;;;;;10227402;28;20199;-83
2021/10/19 08:47:11;;;;;;;19.77;14.20;;;14.20;99.90;;;;;;10225255;28;20256;-84
2021/10/19 08:52:13;;;;;;;18.40;15.40;;;14.30;99.90;;;;;;10225836;28;20232;-83
2021/10/19 08:57:17;;;;;;;11.37;10.37;;;14.20;99.90;;;;;;10225167;28;20222;-83
2021/10/19 09:02:20;;;;;;;7.50;6.70;;;14.00;99.90;;;;;;10240407;29;20196;-82
2021/10/19 09:07:28;;;;;;;8.47;6.70;;;13.90;99.90;;;;;;10243060;28;20230;-84
2021/10/19 09:12:31;;;;;;;11.67;10.50;;;13.80;99.90;;;;;;10242002;28;20224;-82
2021/10/19 09:17:39;;;;;;;19.73;13.40;;;13.90;99.90;;;;;;10251773;28;20595;-81
2021/10/19 09:22:53;;;;;;;16.77;15.23;;;13.90;99.90;;;;;;10254527;28;20192;-82
2021/10/19 09:28:00;;;;;;;15.43;14.00;;;13.80;99.90;;;;;;10253474;28;20228;-82
2021/10/19 09:33:03;;;;;;;13.13;11.93;;;13.90;99.90;;;;;;10253284;28;20255;-82
2021/10/19 09:38:09;;;;;;;6.77;6.27;;;13.90;99.90;;;;;;10253816;28;20236;-82
2021/10/19 09:43:14;;;;;;;6.23;5.77;;;13.90;99.90;;;;;;10222499;29;20201;-82
2021/10/19 09:48:17;;;;;;;6.30;5.13;;;14.00;99.90;;;;;;10222096;29;20240;-83
2021/10/19 09:53:20;;;;;;;6.93;6.43;;;14.10;99.90;;;;;;10237400;29;20575;-82
2021/10/19 09:58:24;;;;;;;5.53;5.07;;;14.10;99.90;;;;;;10223598;29;20248;-81
2021/10/19 10:03:26;;;;;;;6.93;6.33;;;14.20;99.90;;;;;;10237066;29;20216;-82
2021/10/19 10:08:28;;;;;;;5.60;5.10;;;14.20;99.90;;;;;;10222017;29;20258;-81
2021/10/19 10:13:33;;;;;;;6.23;5.70;;;14.30;99.90;;;;;;10234719;29;20225;-82
2021/10/19 10:18:36;;;;;;;6.23;5.73;;;14.30;99.90;;;;;;10247768;28;20287;-81
2021/10/19 10:23:40;;;;;;;5.73;5.23;;;14.40;99.90;;;;;;10237322;29;20260;-84
2021/10/19 10:28:43;;;;;;;4.87;4.47;;;14.50;99.90;;;;;;10233803;28;20577;-82
2021/10/19 10:33:47;;;;;;;6.00;5.50;;;14.50;99.90;;;;;;10250783;28;20208;-81
2021/10/19 10:38:54;;;;;;;4.50;4.20;;;14.60;99.90;;;;;;10251495;28;20607;-82
2021/10/19 10:44:02;;;;;;;4.47;4.17;;;14.70;99.90;;;;;;10218302;28;20635;-82
2021/10/19 10:49:11;;;;;;;4.70;4.40;;;14.80;99.90;;;;;;10250591;28;20239;-81
2021/10/19 10:54:18;;;;;;;4.50;4.20;;;14.80;99.90;;;;;;10235291;28;20196;-81
2021/10/19 10:59:27;;;;;;;4.30;4.00;;;14.90;99.90;;;;;;10237876;29;20193;-81
2021/10/19 11:04:29;;;;;;;5.90;5.30;;;15.00;99.90;;;;;;10258479;28;20219;-81
2021/10/19 11:09:31;;;;;;;5.00;4.60;;;15.00;99.90;;;;;;10187404;29;20229;-81
2021/10/19 11:14:34;;;;;;;5.17;4.83;;;15.00;99.90;;;;;;10213427;28;20216;-81
2021/10/19 11:19:37;;;;;;;4.90;4.40;;;15.00;99.90;;;;;;10217506;29;20205;-81
2021/10/19 11:24:39;;;;;;;5.50;5.10;;;15.00;99.90;;;;;;10249436;28;20217;-81
2021/10/19 11:29:43;;;;;;;4.90;4.50;;;15.10;99.90;;;;;;10250491;29;20708;-81
2021/10/19 11:34:46;;;;;;;5.37;4.97;;;15.10;99.90;;;;;;10233768;28;20224;-81
2021/10/19 11:39:48;;;;;;;5.10;4.80;;;15.10;99.90;;;;;;10219239;28;20219;-81
2021/10/19 11:44:51;;;;;;;5.40;5.00;;;15.10;99.90;;;;;;10257157;28;20693;-81
2021/10/19 11:49:55;;;;;;;4.73;4.43;;;15.20;99.90;;;;;;10224553;29;20235;-81
2021/10/19 11:54:57;;;;;;;4.47;4.17;;;15.20;99.90;;;;;;10241952;28;20236;-81
2021/10/19 12:00:06;;;;;;;6.20;5.63;;;15.30;99.90;;;;;;10223413;29;20203;-81
2021/10/19 12:05:14;;;;;;;7.63;6.73;;;15.40;99.90;;;;;;10238995;28;20235;-81
2021/10/19 12:10:19;;;;;;;4.80;4.40;;;15.50;99.90;;;;;;10223052;29;20317;-81
2021/10/19 12:15:27;;;;;;;6.00;4.70;;;15.50;99.90;;;;;;10239775;28;20220;-81
2021/10/19 12:20:31;;;;;;;4.40;4.10;;;15.50;99.90;;;;;;10223504;29;20287;-81
2021/10/19 12:25:39;;;;;;;4.10;3.80;;;15.50;99.90;;;;;;10238764;28;20224;-81
2021/10/19 12:30:43;;;;;;;4.47;4.07;;;15.50;99.90;;;;;;10222341;29;20225;-81
2021/10/19 12:35:53;;;;;;;3.77;3.50;;;15.50;99.90;;;;;;10222152;28;20685;-81
2021/10/19 12:40:55;;;;;;;4.10;3.80;;;15.40;99.90;;;;;;10257385;29;20277;-81
2021/10/19 12:46:00;;;;;;;4.80;4.50;;;15.40;99.90;;;;;;10238600;28;20240;-81
2021/10/19 12:51:03;;;;;;;4.70;4.30;;;15.40;99.90;;;;;;10255609;28;20224;-81
2021/10/19 12:56:06;;;;;;;4.67;4.27;;;15.50;99.90;;;;;;10238794;28;20228;-81
2021/10/19 13:01:11;;;;;;;5.70;4.60;;;15.60;99.90;;;;;;10223028;29;20657;-81
2021/10/19 13:06:14;;;;;;;4.63;4.33;;;15.60;99.90;;;;;;10239061;28;20225;-81
2021/10/19 13:11:16;;;;;;;4.90;4.50;;;15.70;99.90;;;;;;10233567;29;20273;-81
2021/10/19 13:16:19;;;;;;;4.90;4.57;;;15.70;99.90;;;;;;10222998;29;20731;-81
2021/10/19 13:21:22;;;;;;;4.80;4.40;;;15.80;99.90;;;;;;10233119;28;20204;-81
2021/10/19 13:26:24;;;;;;;4.87;4.47;;;15.80;99.90;;;;;;10222196;28;20579;-81
2021/10/19 13:31:28;;;;;;;6.20;5.80;;;15.90;99.90;;;;;;10237503;29;20212;-81
2021/10/19 13:36:30;;;;;;;5.33;4.90;;;15.90;99.90;;;;;;10257929;29;20220;-81
2021/10/19 13:41:33;;;;;;;5.80;5.27;;;15.90;99.90;;;;;;10273090;28;20196;-81
2021/10/19 13:46:37;;;;;;;4.37;3.97;;;15.90;99.90;;;;;;10258529;28;20224;-81
2021/10/19 13:51:39;;;;;;;4.87;4.47;;;16.00;99.90;;;;;;10261631;28;20713;-81
2021/10/19 13:56:41;;;;;;;3.83;3.63;;;16.00;99.90;;;;;;10251649;28;20224;-81
2021/10/19 14:01:44;;;;;;;4.93;4.63;;;16.10;99.90;;;;;;10277882;28;20200;-82
2021/10/19 14:06:47;;;;;;;4.57;4.27;;;16.20;99.90;;;;;;10236193;29;20672;-81
2021/10/19 14:11:49;;;;;;;5.27;4.77;;;16.30;99.90;;;;;;10218203;29;20221;-82
2021/10/19 14:16:52;;;;;;;5.20;4.70;;;16.30;99.90;;;;;;10236284;28;20348;-82
2021/10/19 14:21:54;;;;;;;5.23;4.80;;;16.30;99.90;;;;;;10252607;29;20199;-82
2021/10/19 14:26:57;;;;;;;5.07;4.60;;;16.40;99.90;;;;;;10219137;28;20577;-82
2021/10/19 14:32:01;;;;;;;4.60;4.23;;;16.40;99.90;;;;;;10219353;29;20319;-82
2021/10/19 14:37:03;;;;;;;6.90;6.20;;;16.40;99.90;;;;;;10219219;28;20268;-81
2021/10/19 14:42:05;;;;;;;6.70;6.10;;;16.40;99.90;;;;;;10217981;29;20200;-82
2021/10/19 14:47:09;;;;;;;7.30;6.70;;;16.40;99.90;;;;;;10217623;28;20263;-81
2021/10/19 14:52:11;;;;;;;6.27;5.77;;;16.50;99.90;;;;;;10217963;29;20267;-82
2021/10/19 14:57:14;;;;;;;8.50;5.90;;;16.50;99.90;;;;;;10216386;28;20228;-82
2021/10/19 15:02:18;;;;;;;5.50;5.10;;;16.50;99.90;;;;;;10233806;28;20201;-82
2021/10/19 15:07:20;;;;;;;5.40;5.00;;;16.50;99.90;;;;;;10234266;29;20232;-82
2021/10/19 15:12:22;;;;;;;4.93;4.60;;;16.40;99.90;;;;;;10220021;29;20232;-82
2021/10/19 15:17:25;;;;;;;4.40;3.93;;;16.40;99.90;;;;;;10226566;29;20220;-82
2021/10/19 15:22:27;;;;;;;5.13;4.57;;;16.40;99.90;;;;;;10259569;29;20201;-82
2021/10/19 15:27:29;;;;;;;4.90;4.60;;;16.40;99.90;;;;;;10226282;29;20716;-82
2021/10/19 15:32:33;;;;;;;4.60;4.30;;;16.40;99.90;;;;;;10259720;29;20780;-82
2021/10/19 15:37:35;;;;;;;5.97;4.30;;;16.50;99.90;;;;;;10261290;28;20225;-82
2021/10/19 15:42:38;;;;;;;4.73;4.43;;;16.50;99.90;;;;;;10243927;29;20593;-82
2021/10/19 15:47:41;;;;;;;4.67;4.37;;;16.50;99.90;;;;;;10224337;29;20236;-82
2021/10/19 15:52:43;;;;;;;5.60;5.20;;;16.50;99.90;;;;;;10223672;29;20220;-82
2021/10/19 15:57:46;;;;;;;6.17;5.67;;;16.50;99.90;;;;;;10238577;29;20221;-83
2021/10/19 16:02:49;;;;;;;5.47;5.07;;;16.50;99.90;;;;;;10221540;29;20211;-83
2021/10/19 16:07:52;;;;;;;6.70;4.97;;;16.40;99.90;;;;;;10222821;29;20719;-82
2021/10/19 16:12:54;;;;;;;20.20;5.50;;;16.30;99.90;;;;;;10237708;29;20228;-83
2021/10/19 16:17:57;;;;;;;8.63;5.30;;;16.20;99.90;;;;;;10253463;28;20603;-82
2021/10/19 16:23:03;;;;;;;5.90;5.40;;;16.10;99.90;;;;;;10254229;29;20204;-83
2021/10/19 16:28:06;;;;;;;6.57;6.07;;;16.00;99.90;;;;;;10221234;29;20249;-83
2021/10/19 16:33:09;;;;;;;6.03;5.53;;;15.90;99.90;;;;;;10235749;29;20613;-82
2021/10/19 16:38:12;;;;;;;5.17;4.70;;;15.80;99.90;;;;;;10220929;29;20284;-84
2021/10/19 16:43:16;;;;;;;8.43;5.37;;;15.70;99.90;;;;;;10222525;29;20201;-83
2021/10/19 16:48:27;;;;;;;6.60;5.90;;;15.60;99.90;;;;;;10136362;23;1587566;-84
2021/10/19 16:53:29;;;;;;;7.17;6.37;;;15.60;99.90;;;;;;10149573;29;20222;-83
2021/10/19 16:58:34;;;;;;;6.23;5.73;;;15.50;99.90;;;;;;10130749;29;20231;-84
2021/10/19 17:03:48;;;;;;;6.60;6.00;;;15.40;99.90;;;;;;10138883;29;20240;-83
2021/10/19 17:08:50;;;;;;;5.63;5.23;;;15.40;99.90;;;;;;10123881;29;20256;-84
2021/10/19 17:13:52;;;;;;;6.10;5.60;;;15.40;99.90;;;;;;10140062;29;20706;-84
2021/10/19 17:18:55;;;;;;;7.20;6.30;;;15.30;99.90;;;;;;10138270;29;20305;-83
2021/10/19 17:24:01;;;;;;;6.73;6.13;;;15.30;99.90;;;;;;10123469;29;20207;-84
2021/10/19 17:29:03;;;;;;;7.33;5.33;;;15.20;99.90;;;;;;10128080;29;20695;-84
2021/10/19 17:34:06;;;;;;;6.07;5.57;;;15.20;99.90;;;;;;10142290;29;20226;-83
2021/10/19 17:39:09;;;;;;;5.50;5.13;;;15.20;99.90;;;;;;10126146;29;20234;-83
2021/10/19 17:44:11;;;;;;;7.07;6.47;;;15.10;99.90;;;;;;10125139;29;20238;-84
2021/10/19 17:49:15;;;;;;;6.00;5.53;;;15.10;99.90;;;;;;10131245;29;20226;-84
2021/10/19 17:54:17;;;;;;;6.60;5.70;;;15.10;99.90;;;;;;10123508;29;20234;-84
2021/10/19 17:59:23;;;;;;;5.50;5.10;;;15.10;99.90;;;;;;10111997;29;20273;-85
2021/10/19 18:04:26;;;;;;;6.67;6.07;;;15.00;99.90;;;;;;10133880;29;20202;-84
2021/10/19 18:09:34;;;;;;;8.50;6.10;;;15.00;99.90;;;;;;10117269;29;20265;-84
2021/10/19 18:14:36;;;;;;;8.83;8.00;;;14.90;99.90;;;;;;10117339;29;20269;-84
2021/10/19 18:19:40;;;;;;;8.10;7.40;;;14.90;99.90;;;;;;10134695;29;20244;-84
2021/10/19 18:24:42;;;;;;;8.60;6.60;;;14.90;99.90;;;;;;10136764;29;20233;-84
2021/10/19 18:29:45;;;;;;;7.20;6.60;;;14.90;99.90;;;;;;10120331;29;20786;-84
2021/10/19 18:34:48;;;;;;;6.93;6.43;;;14.80;99.90;;;;;;10133275;29;20945;-85
2021/10/19 18:39:51;;;;;;;7.33;6.63;;;14.70;99.90;;;;;;10121659;29;20234;-83
2021/10/19 18:44:53;;;;;;;10.40;8.20;;;14.60;99.90;;;;;;10121874;29;20203;-84
2021/10/19 18:49:56;;;;;;;9.57;8.67;;;14.60;99.90;;;;;;10134281;29;20282;-84
2021/10/19 18:54:59;;;;;;;9.47;8.63;;;14.60;99.90;;;;;;10116096;29;20234;-85
2021/10/19 19:00:01;;;;;;;13.67;12.47;;;14.50;99.90;;;;;;10116151;29;20205;-84
2021/10/19 19:05:07;;;;;;;12.53;10.90;;;14.50;99.90;;;;;;10129709;29;20229;-84
2021/10/19 19:10:11;;;;;;;9.50;8.47;;;14.50;99.90;;;;;;10112103;29;20320;-84
2021/10/19 19:15:18;;;;;;;10.60;9.70;;;14.40;99.90;;;;;;10117494;29;20587;-84
2021/10/19 19:20:34;;;;;;;9.57;8.67;;;14.40;99.90;;;;;;10129623;29;20710;-84
2021/10/19 19:25:36;;;;;;;10.80;9.87;;;14.30;99.90;;;;;;10123188;29;20317;-83
2021/10/19 19:30:45;;;;;;;8.77;7.97;;;14.30;99.90;;;;;;10118049;29;20714;-84
2021/10/19 19:35:49;;;;;;;7.17;6.57;;;14.30;99.90;;;;;;10100629;29;20323;-84
2021/10/19 19:40:53;;;;;;;8.23;7.27;;;14.30;99.90;;;;;;10115988;29;20226;-84
2021/10/19 19:45:57;;;;;;;7.90;7.30;;;14.30;99.90;;;;;;10116054;29;20242;-84
2021/10/19 19:51:00;;;;;;;7.97;7.27;;;14.30;99.90;;;;;;10117214;29;20673;-84
2021/10/19 19:56:03;;;;;;;11.63;7.77;;;14.40;99.90;;;;;;10117469;29;20612;-84
2021/10/19 20:01:07;;;;;;;11.60;10.33;;;14.40;99.90;;;;;;10113190;29;20209;-84
2021/10/19 20:06:12;;;;;;;11.50;10.53;;;14.40;99.90;;;;;;10120002;29;20314;-84
2021/10/19 20:11:18;;;;;;;9.80;8.80;;;14.40;99.90;;;;;;10137345;29;20238;-85
2021/10/19 20:16:20;;;;;;;11.83;9.10;;;14.50;99.90;;;;;;10137034;29;20244;-83
2021/10/19 20:21:25;;;;;;;7.43;6.73;;;14.40;99.90;;;;;;10121349;29;20277;-84
2021/10/19 20:26:30;;;;;;;7.30;6.60;;;14.50;99.90;;;;;;10134800;29;20606;-83
2021/10/19 20:31:35;;;;;;;7.00;6.40;;;14.40;99.90;;;;;;10134712;29;20218;-84
2021/10/19 20:36:39;;;;;;;7.13;6.53;;;14.40;99.90;;;;;;10139511;29;20376;-83
2021/10/19 20:41:41;;;;;;;6.23;5.67;;;14.30;99.90;;;;;;10121127;29;20207;-82
2021/10/19 20:46:43;;;;;;;6.30;5.80;;;14.30;99.90;;;;;;10155582;29;20245;-83
2021/10/19 20:51:47;;;;;;;6.60;6.00;;;14.30;99.90;;;;;;10147965;29;20231;-82
2021/10/19 20:56:50;;;;;;;6.20;5.63;;;14.20;99.90;;;;;;10119734;29;20593;-83
2021/10/19 21:01:53;;;;;;;5.67;5.27;;;14.20;99.90;;;;;;10121671;29;20684;-83
2021/10/19 21:06:59;;;;;;;5.97;5.47;;;14.20;99.90;;;;;;10124376;29;20244;-83
2021/10/19 21:12:05;;;;;;;6.47;5.20;;;14.20;99.90;;;;;;10132493;29;20215;-83
2021/10/19 21:17:17;;;;;;;6.17;5.70;;;14.20;99.90;;;;;;10105541;29;20244;-84
2021/10/19 21:22:20;;;;;;;6.00;5.60;;;14.10;99.90;;;;;;10131124;29;20208;-83
2021/10/19 21:27:22;;;;;;;6.00;5.50;;;14.10;99.90;;;;;;10125583;29;20222;-84
2021/10/19 21:32:24;;;;;;;5.70;5.30;;;14.10;99.90;;;;;;10104616;29;20218;-84
2021/10/19 21:37:33;;;;;;;5.83;5.40;;;14.00;99.90;;;;;;10117240;29;20222;-84
2021/10/19 21:42:40;;;;;;;5.43;4.93;;;14.00;99.90;;;;;;10119528;29;20227;-83
2021/10/19 21:47:44;;;;;;;5.47;5.07;;;14.00;99.90;;;;;;10090568;29;20688;-82
2021/10/19 21:52:55;;;;;;;5.53;5.13;;;14.00;99.90;;;;;;10175177;29;20241;-83
2021/10/19 21:58:00;;;;;;;5.80;5.40;;;14.00;99.90;;;;;;10164146;29;20598;-83
2021/10/19 22:03:02;;;;;;;4.67;4.37;;;13.90;99.90;;;;;;10178570;29;20198;-82
2021/10/19 22:08:09;;;;;;;5.57;5.17;;;13.90;99.90;;;;;;10151944;29;20314;-82
2021/10/19 22:13:12;;;;;;;7.63;5.10;;;13.90;99.90;;;;;;10132378;29;20262;-83
2021/10/19 22:18:15;;;;;;;6.13;5.73;;;13.80;99.90;;;;;;10118677;29;20223;-83
2021/10/19 22:28:36;;;;;;;7.73;6.10;;;13.70;99.90;;;;;;10087227;29;20596;-83
2021/10/19 22:33:38;;;;;;;5.00;4.60;;;13.70;99.90;;;;;;10102367;29;20230;-83
2021/10/19 22:38:41;;;;;;;5.77;5.30;;;13.70;99.90;;;;;;10103121;29;20238;-83
2021/10/19 22:43:43;;;;;;;5.53;5.07;;;13.70;99.90;;;;;;10122911;29;20746;-83
